createdAt,value
2022-08-31T00:02:43.086Z,21.23
2022-08-31T00:05:12.317Z,21.26
2022-08-31T00:07:40.460Z,21.25
2022-08-31T00:10:14.465Z,21.24
2022-08-31T00:12:43.144Z,21.23
2022-08-31T00:15:14.292Z,21.23
2022-08-31T00:17:42.362Z,21.18
2022-08-31T00:20:32.501Z,21.15
2022-08-31T00:23:01.443Z,21.13
2022-08-31T00:25:29.084Z,21.09
2022-08-31T00:27:56.645Z,21.09
2022-08-31T00:30:24.871Z,21.08
2022-08-31T00:32:52.708Z,21.04
2022-08-31T00:35:21.753Z,20.99
2022-08-31T00:37:49.528Z,20.97
2022-08-31T00:40:17.350Z,20.93
2022-08-31T00:42:45.015Z,20.92
2022-08-31T00:45:12.974Z,20.91
2022-08-31T00:47:40.628Z,20.87
2022-08-31T00:50:11.506Z,20.83
2022-08-31T00:52:45.719Z,20.79
2022-08-31T00:55:17.924Z,20.74
2022-08-31T00:57:49.147Z,20.71
2022-08-31T01:00:20.411Z,20.69
2022-08-31T01:02:49.171Z,20.65
2022-08-31T01:05:17.448Z,20.63
2022-08-31T01:07:48.109Z,20.61
2022-08-31T01:10:17.830Z,20.58
2022-08-31T01:12:48.794Z,20.55
2022-08-31T01:15:18.765Z,20.52
2022-08-31T01:17:48.581Z,20.51
2022-08-31T01:20:23.240Z,20.50
2022-08-31T01:23:07.199Z,20.45
2022-08-31T01:25:36.588Z,20.42
2022-08-31T01:28:07.030Z,20.41
2022-08-31T01:30:35.611Z,20.36
2022-08-31T01:33:03.236Z,20.34
2022-08-31T01:35:31.439Z,20.32
2022-08-31T01:38:01.179Z,20.30
2022-08-31T01:40:34.298Z,20.29
2022-08-31T01:43:01.910Z,20.31
2022-08-31T01:45:30.375Z,20.30
2022-08-31T01:48:00.128Z,20.32
2022-08-31T01:50:27.790Z,20.36
2022-08-31T01:52:55.342Z,20.40
2022-08-31T01:55:24.251Z,20.39
2022-08-31T01:57:51.940Z,20.42
2022-08-31T02:00:20.121Z,20.46
2022-08-31T02:02:47.832Z,20.46
2022-08-31T02:05:15.545Z,20.48
2022-08-31T02:07:43.192Z,20.50
2022-08-31T02:10:11.060Z,20.48
2022-08-31T02:12:39.928Z,20.43
2022-08-31T02:15:09.110Z,20.44
2022-08-31T02:17:36.948Z,20.43
2022-08-31T02:20:06.719Z,20.39
2022-08-31T02:22:34.354Z,20.40
2022-08-31T02:25:02.000Z,20.37
2022-08-31T02:27:29.709Z,20.32
2022-08-31T02:29:58.720Z,20.26
2022-08-31T02:32:26.423Z,20.23
2022-08-31T02:34:54.160Z,20.20
2022-08-31T02:37:21.738Z,20.17
2022-08-31T02:39:50.369Z,20.16
2022-08-31T02:42:18.448Z,20.16
2022-08-31T02:44:46.410Z,20.19
2022-08-31T02:47:15.507Z,20.19
2022-08-31T02:49:43.177Z,20.17
2022-08-31T02:52:10.868Z,20.23
2022-08-31T02:54:38.510Z,20.24
2022-08-31T02:57:06.568Z,20.25
2022-08-31T02:59:34.383Z,20.26
2022-08-31T03:02:02.097Z,20.28
2022-08-31T03:04:31.963Z,20.26
2022-08-31T03:06:59.526Z,20.25
2022-08-31T03:09:28.238Z,20.25
2022-08-31T03:11:55.822Z,20.24
2022-08-31T03:14:23.420Z,20.27
2022-08-31T03:16:51.995Z,20.29
2022-08-31T03:19:19.801Z,20.31
2022-08-31T03:21:55.887Z,20.31
2022-08-31T03:24:27.136Z,20.32
2022-08-31T03:26:55.138Z,20.32
2022-08-31T03:29:22.723Z,20.32
2022-08-31T03:31:50.235Z,20.29
2022-08-31T03:34:17.845Z,20.25
2022-08-31T03:36:45.431Z,20.21
2022-08-31T03:39:14.419Z,20.16
2022-08-31T03:41:42.153Z,20.20
2022-08-31T03:44:09.841Z,20.20
2022-08-31T03:46:37.816Z,20.16
2022-08-31T03:49:06.285Z,20.13
2022-08-31T03:51:33.842Z,20.16
2022-08-31T03:54:01.408Z,20.15
2022-08-31T03:56:30.748Z,20.15
2022-08-31T03:58:58.330Z,20.14
2022-08-31T04:01:26.032Z,20.13
2022-08-31T04:03:53.743Z,20.09
2022-08-31T04:06:22.007Z,20.06
2022-08-31T04:08:49.617Z,20.05
2022-08-31T04:11:20.167Z,20.01
2022-08-31T04:14:08.501Z,19.91
2022-08-31T04:16:41.169Z,19.83
2022-08-31T04:19:09.956Z,19.75
2022-08-31T04:21:37.756Z,19.69
2022-08-31T04:24:05.523Z,19.65
2022-08-31T04:26:35.065Z,19.68
2022-08-31T04:29:12.244Z,19.77
2022-08-31T04:31:42.305Z,19.73
2022-08-31T04:34:10.163Z,19.69
2022-08-31T04:36:38.615Z,19.63
2022-08-31T04:39:07.568Z,19.57
2022-08-31T04:41:38.497Z,19.52
2022-08-31T04:44:06.685Z,19.51
2022-08-31T04:46:37.504Z,19.51
2022-08-31T04:49:07.965Z,19.53
2022-08-31T04:51:36.600Z,19.54
2022-08-31T04:54:06.379Z,19.54
2022-08-31T04:56:36.353Z,19.50
2022-08-31T04:59:07.859Z,19.46
2022-08-31T05:01:43.050Z,19.46
2022-08-31T05:04:14.386Z,19.51
2022-08-31T05:06:44.010Z,19.52
2022-08-31T05:09:15.275Z,19.50
2022-08-31T05:11:43.469Z,19.49
2022-08-31T05:14:11.310Z,19.50
2022-08-31T05:16:40.399Z,19.52
2022-08-31T05:19:08.266Z,19.53
2022-08-31T05:21:39.360Z,19.58
2022-08-31T05:24:10.019Z,19.57
2022-08-31T05:26:42.050Z,19.59
2022-08-31T05:29:10.226Z,19.63
2022-08-31T05:31:38.904Z,19.60
2022-08-31T05:34:07.516Z,19.57
2022-08-31T05:36:35.947Z,19.59
2022-08-31T05:39:06.337Z,19.61
2022-08-31T05:41:33.961Z,19.67
2022-08-31T05:44:04.093Z,19.71
2022-08-31T05:46:32.085Z,19.69
2022-08-31T05:48:59.833Z,19.68
2022-08-31T05:51:27.497Z,19.70
2022-08-31T05:53:55.285Z,19.68
2022-08-31T05:56:25.556Z,19.66
2022-08-31T05:58:55.063Z,19.64
2022-08-31T06:01:26.523Z,19.62
2022-08-31T06:03:55.170Z,19.61
2022-08-31T06:06:22.737Z,19.63
2022-08-31T06:08:51.865Z,19.63
2022-08-31T06:11:23.308Z,19.61
2022-08-31T06:13:54.634Z,19.63
2022-08-31T06:16:23.279Z,19.62
2022-08-31T06:18:51.917Z,19.62
2022-08-31T06:21:22.105Z,19.59
2022-08-31T06:23:51.960Z,19.59
2022-08-31T06:26:21.524Z,19.59
2022-08-31T06:28:50.525Z,19.61
2022-08-31T06:31:24.991Z,19.61
2022-08-31T06:33:52.908Z,19.58
2022-08-31T06:36:22.540Z,19.61
2022-08-31T06:38:50.408Z,19.61
2022-08-31T06:41:20.351Z,19.62
2022-08-31T06:43:48.903Z,19.63
2022-08-31T06:46:17.819Z,19.64
2022-08-31T06:48:46.801Z,19.65
2022-08-31T06:51:14.887Z,19.64
2022-08-31T06:53:43.370Z,19.66
2022-08-31T06:56:20.802Z,19.66
2022-08-31T06:58:53.619Z,19.66
2022-08-31T07:01:35.734Z,19.61
2022-08-31T07:04:07.627Z,19.58
2022-08-31T07:06:37.953Z,19.56
2022-08-31T07:09:08.013Z,19.57
2022-08-31T07:11:41.008Z,19.57
2022-08-31T07:14:13.999Z,19.58
2022-08-31T07:16:46.110Z,19.59
2022-08-31T07:19:16.589Z,19.61
2022-08-31T07:21:46.596Z,19.65
2022-08-31T07:24:17.937Z,19.71
2022-08-31T07:26:47.595Z,19.72
2022-08-31T07:29:17.189Z,19.78
2022-08-31T07:31:46.401Z,19.80
2022-08-31T07:34:17.059Z,19.82
2022-08-31T07:37:02.101Z,19.81
2022-08-31T07:39:48.460Z,19.82
2022-08-31T07:42:18.399Z,19.82
2022-08-31T07:44:53.002Z,19.81
2022-08-31T07:47:22.673Z,19.85
2022-08-31T07:49:53.730Z,19.85
2022-08-31T07:52:24.180Z,19.86
2022-08-31T07:54:53.991Z,19.86
2022-08-31T07:57:25.707Z,19.85
2022-08-31T07:59:55.681Z,19.88
2022-08-31T08:02:23.674Z,19.88
2022-08-31T08:04:53.349Z,19.89
2022-08-31T08:07:21.572Z,19.92
2022-08-31T08:09:49.318Z,19.93
2022-08-31T08:12:19.168Z,19.94
2022-08-31T08:14:50.103Z,19.96
2022-08-31T08:17:17.660Z,19.96
2022-08-31T08:19:45.225Z,19.98
2022-08-31T08:22:17.040Z,20.00
2022-08-31T08:25:06.967Z,19.99
2022-08-31T08:27:35.687Z,19.96
2022-08-31T08:30:03.341Z,19.95
2022-08-31T08:32:31.867Z,19.95
2022-08-31T08:34:59.948Z,19.94
2022-08-31T08:37:54.501Z,19.94
2022-08-31T08:40:28.237Z,19.91
2022-08-31T08:42:56.064Z,19.89
2022-08-31T08:45:24.518Z,19.90
2022-08-31T08:47:54.462Z,19.91
2022-08-31T08:50:26.583Z,19.94
2022-08-31T08:52:57.248Z,19.98
2022-08-31T08:55:34.542Z,19.97
2022-08-31T08:58:05.947Z,19.97
2022-08-31T09:00:34.854Z,19.98
2022-08-31T09:03:12.237Z,19.98
2022-08-31T09:05:56.336Z,20.01
2022-08-31T09:08:41.579Z,20.02
2022-08-31T09:11:17.739Z,20.03
2022-08-31T09:13:57.135Z,20.00
2022-08-31T09:16:40.912Z,19.95
2022-08-31T09:19:11.811Z,19.96
2022-08-31T09:32:28.993Z,20.06
2022-08-31T09:35:03.110Z,20.07
2022-08-31T09:37:46.660Z,20.07
2022-08-31T09:40:26.203Z,20.08
2022-08-31T09:43:13.811Z,20.13
2022-08-31T09:45:59.077Z,20.15
2022-08-31T09:48:47.101Z,20.20
2022-08-31T09:51:25.287Z,20.23
2022-08-31T09:54:12.772Z,20.26
2022-08-31T09:56:56.148Z,20.31
2022-08-31T09:59:39.055Z,20.35
2022-08-31T10:02:15.487Z,20.36
2022-08-31T10:04:57.335Z,20.39
2022-08-31T10:07:44.482Z,20.44
2022-08-31T10:10:32.029Z,20.47
2022-08-31T10:13:06.635Z,20.51
2022-08-31T10:15:43.452Z,20.58
2022-08-31T10:18:18.649Z,20.63
2022-08-31T10:21:00.593Z,20.63
2022-08-31T10:23:38.302Z,20.64
2022-08-31T10:26:18.384Z,20.64
2022-08-31T10:28:54.636Z,20.66
2022-08-31T10:31:30.750Z,20.70
2022-08-31T10:34:21.284Z,20.72
2022-08-31T10:37:00.277Z,20.76
2022-08-31T10:39:37.663Z,20.79
2022-08-31T10:42:13.738Z,20.84
2022-08-31T10:44:50.015Z,20.86
2022-08-31T10:47:33.979Z,20.87
2022-08-31T10:50:07.039Z,20.90
2022-08-31T10:52:46.975Z,20.92
2022-08-31T10:55:34.580Z,20.96
2022-08-31T10:58:19.613Z,20.99
2022-08-31T11:00:55.219Z,21.06
2022-08-31T11:03:49.709Z,21.11
2022-08-31T11:06:25.993Z,21.17
2022-08-31T11:09:03.844Z,21.27
2022-08-31T11:11:43.466Z,21.40
2022-08-31T11:14:46.164Z,21.53
2022-08-31T11:17:38.653Z,21.69
2022-08-31T11:20:16.699Z,21.87
2022-08-31T11:23:11.853Z,22.01
2022-08-31T11:26:30.753Z,22.16
2022-08-31T11:29:12.302Z,22.21
2022-08-31T11:31:44.932Z,22.23
2022-08-31T11:34:32.440Z,22.32
2022-08-31T11:37:08.324Z,22.52
2022-08-31T11:39:49.388Z,22.76
2022-08-31T11:42:56.119Z,23.00
2022-08-31T11:45:38.857Z,23.21
2022-08-31T11:48:13.646Z,23.39
2022-08-31T11:51:09.300Z,23.50
2022-08-31T11:53:45.842Z,23.58
2022-08-31T11:56:45.126Z,23.65
2022-08-31T11:59:28.401Z,23.69
2022-08-31T12:02:29.181Z,23.68
2022-08-31T12:05:08.437Z,23.73
2022-08-31T12:07:47.510Z,23.80
2022-08-31T12:10:40.183Z,23.91
2022-08-31T12:16:48.428Z,24.25
2022-08-31T12:20:02.645Z,24.48
2022-08-31T12:23:28.688Z,24.72
2022-08-31T12:26:38.089Z,24.86
2022-08-31T12:29:38.702Z,24.92
2022-08-31T12:32:37.097Z,24.91
2022-08-31T12:35:32.446Z,24.85
2022-08-31T12:38:07.216Z,24.80
2022-08-31T12:40:42.925Z,24.76
2022-08-31T12:46:41.663Z,24.76
2022-08-31T12:49:26.080Z,24.71
2022-08-31T12:52:04.433Z,24.70
2022-08-31T12:55:24.931Z,24.77
2022-08-31T12:58:12.578Z,24.84
2022-08-31T13:00:43.994Z,24.81
2022-08-31T13:03:27.226Z,24.80
2022-08-31T13:06:19.946Z,24.86
2022-08-31T13:08:57.302Z,24.92
2022-08-31T13:11:39.888Z,24.96
2022-08-31T13:14:32.141Z,24.98
2022-08-31T13:17:09.013Z,24.95
2022-08-31T13:19:40.915Z,24.88
2022-08-31T13:22:18.687Z,24.84
2022-08-31T13:24:55.814Z,24.83
2022-08-31T13:27:29.604Z,24.79
2022-08-31T13:30:22.650Z,24.78
2022-08-31T13:32:58.705Z,24.72
2022-08-31T13:35:39.015Z,24.64
2022-08-31T13:38:22.119Z,24.59
2022-08-31T13:41:00.018Z,24.58
2022-08-31T13:43:37.512Z,24.58
2022-08-31T13:46:14.313Z,24.61
2022-08-31T13:48:45.720Z,24.62
2022-08-31T13:51:24.251Z,24.61
2022-08-31T13:54:23.280Z,24.59
2022-08-31T13:57:03.802Z,24.60
2022-08-31T13:59:41.148Z,24.59
2022-08-31T14:02:45.156Z,24.56
2022-08-31T14:05:38.798Z,24.55
2022-08-31T14:08:32.504Z,24.56
2022-08-31T14:11:10.654Z,24.55
2022-08-31T14:13:51.453Z,24.54
2022-08-31T14:16:30.713Z,24.53
2022-08-31T14:19:02.357Z,24.49
2022-08-31T14:21:39.337Z,24.48
2022-08-31T14:24:12.416Z,24.48
2022-08-31T14:26:46.831Z,24.48
2022-08-31T14:29:19.173Z,24.49
2022-08-31T14:31:53.269Z,24.49
2022-08-31T14:34:24.963Z,24.51
2022-08-31T14:36:57.897Z,24.53
2022-08-31T14:39:30.222Z,24.50
2022-08-31T14:42:01.818Z,24.45
2022-08-31T14:44:33.748Z,24.37
2022-08-31T14:47:02.993Z,24.29
2022-08-31T14:49:36.260Z,24.25
2022-08-31T14:52:06.785Z,24.24
2022-08-31T14:54:39.133Z,24.24
2022-08-31T14:57:13.474Z,24.31
2022-08-31T14:59:48.117Z,24.32
2022-08-31T15:02:21.503Z,24.37
2022-08-31T15:04:54.503Z,24.37
2022-08-31T15:07:23.968Z,24.38
2022-08-31T15:09:55.401Z,24.39
2022-08-31T15:12:24.676Z,24.40
2022-08-31T15:15:00.234Z,24.39
2022-08-31T15:17:32.681Z,24.34
2022-08-31T15:20:05.415Z,24.32
2022-08-31T15:22:40.018Z,24.27
2022-08-31T15:25:15.324Z,24.26
2022-08-31T15:27:49.163Z,24.22
2022-08-31T15:30:23.223Z,24.20
2022-08-31T15:32:53.226Z,24.18
2022-08-31T15:35:24.825Z,24.17
2022-08-31T15:38:03.241Z,24.14
2022-08-31T15:40:46.802Z,24.09
2022-08-31T15:43:16.211Z,24.00
2022-08-31T15:45:48.069Z,23.97
2022-08-31T15:48:35.407Z,23.96
2022-08-31T15:51:05.967Z,23.91
2022-08-31T15:53:42.851Z,23.85
2022-08-31T15:56:13.407Z,23.83
2022-08-31T15:58:42.479Z,23.80
2022-08-31T16:01:19.125Z,23.79
2022-08-31T16:03:52.882Z,23.80
2022-08-31T16:06:24.699Z,23.81
2022-08-31T16:08:58.134Z,23.82
2022-08-31T16:11:31.761Z,23.82
2022-08-31T16:14:01.250Z,23.84
2022-08-31T16:16:37.020Z,23.87
2022-08-31T16:19:06.259Z,23.89
2022-08-31T16:21:40.508Z,23.92
2022-08-31T16:24:10.437Z,23.90
2022-08-31T16:26:41.375Z,23.91
2022-08-31T16:29:14.799Z,23.89
2022-08-31T16:31:52.851Z,23.88
2022-08-31T16:34:26.719Z,23.84
2022-08-31T16:36:58.166Z,23.82
2022-08-31T16:39:29.304Z,23.80
2022-08-31T16:41:57.785Z,23.78
2022-08-31T16:44:36.521Z,23.75
2022-08-31T16:47:09.693Z,23.74
2022-08-31T16:49:42.451Z,23.73
2022-08-31T16:52:15.897Z,23.72
2022-08-31T16:54:48.747Z,23.69
2022-08-31T16:57:23.225Z,23.64
2022-08-31T16:59:53.094Z,23.60
2022-08-31T17:02:28.002Z,23.56
2022-08-31T17:05:01.267Z,23.52
2022-08-31T17:07:30.374Z,23.49
2022-08-31T17:10:02.378Z,23.44
2022-08-31T17:12:35.425Z,23.42
2022-08-31T17:15:03.871Z,23.37
2022-08-31T17:17:35.476Z,23.32
2022-08-31T17:20:06.892Z,23.26
2022-08-31T17:22:39.317Z,23.20
2022-08-31T17:25:09.801Z,23.14
2022-08-31T17:27:38.367Z,23.08
2022-08-31T17:30:08.461Z,23.00
2022-08-31T17:32:44.926Z,22.94
2022-08-31T17:35:19.457Z,22.90
2022-08-31T17:37:49.259Z,22.85
2022-08-31T17:40:22.529Z,22.81
2022-08-31T17:42:52.971Z,22.77
2022-08-31T17:45:24.017Z,22.73
2022-08-31T17:47:57.313Z,22.68
2022-08-31T17:50:27.037Z,22.66
2022-08-31T17:52:55.393Z,22.61
2022-08-31T17:55:23.870Z,22.55
2022-08-31T17:57:51.857Z,22.48
2022-08-31T18:00:20.452Z,22.42
2022-08-31T18:02:49.692Z,22.34
2022-08-31T18:05:19.503Z,22.27
2022-08-31T18:07:50.137Z,22.17
2022-08-31T18:10:18.824Z,22.10
2022-08-31T18:12:47.648Z,22.01
2022-08-31T18:15:19.103Z,21.93
2022-08-31T18:17:47.820Z,21.87
2022-08-31T18:20:16.120Z,21.82
2022-08-31T18:22:50.073Z,21.79
2022-08-31T18:25:20.470Z,21.76
2022-08-31T18:30:18.374Z,21.70
2022-08-31T18:32:48.411Z,21.66
2022-08-31T18:35:17.788Z,21.60
2022-08-31T18:37:47.125Z,21.56
2022-08-31T18:40:33.025Z,21.52
2022-08-31T18:43:18.975Z,21.43
2022-08-31T18:45:49.321Z,21.31
2022-08-31T18:48:25.984Z,21.17
2022-08-31T18:50:55.235Z,21.03
2022-08-31T18:53:27.902Z,20.94
2022-08-31T18:55:59.535Z,20.84
2022-08-31T18:58:28.763Z,20.75
2022-08-31T19:00:58.675Z,20.68
2022-08-31T19:03:27.605Z,20.59
2022-08-31T19:05:56.739Z,20.50
2022-08-31T19:08:26.597Z,20.45
2022-08-31T19:10:57.381Z,20.41
2022-08-31T19:13:28.698Z,20.39
2022-08-31T19:16:01.216Z,20.35
2022-08-31T19:18:31.534Z,20.30
2022-08-31T19:21:00.334Z,20.28
2022-08-31T19:23:29.918Z,20.26
2022-08-31T19:25:57.671Z,20.22
2022-08-31T19:28:25.373Z,20.20
2022-08-31T19:30:53.196Z,20.19
2022-08-31T19:33:24.856Z,20.15
2022-08-31T19:35:59.528Z,20.12
2022-08-31T19:38:32.667Z,20.10
2022-08-31T19:41:00.867Z,20.03
2022-08-31T19:43:53.659Z,19.97
2022-08-31T19:46:26.462Z,19.93
2022-08-31T19:48:56.399Z,19.86
2022-08-31T19:51:24.476Z,19.81
2022-08-31T19:53:55.152Z,19.73
2022-08-31T19:56:29.563Z,19.66
2022-08-31T19:58:58.980Z,19.63
2022-08-31T20:01:32.892Z,19.57
2022-08-31T20:04:02.254Z,19.54
2022-08-31T20:06:31.667Z,19.48
2022-08-31T20:09:01.013Z,19.42
2022-08-31T20:11:31.775Z,19.38
2022-08-31T20:14:00.463Z,19.33
2022-08-31T20:16:33.696Z,19.28
2022-08-31T20:19:04.534Z,19.25
2022-08-31T20:21:34.605Z,19.22
2022-08-31T20:24:06.762Z,19.18
2022-08-31T20:26:47.210Z,19.14
2022-08-31T20:29:19.834Z,19.09
2022-08-31T20:31:49.874Z,19.05
2022-08-31T20:34:19.590Z,19.03
2022-08-31T20:36:50.105Z,19.01
2022-08-31T20:39:20.254Z,19.01
2022-08-31T20:41:49.490Z,18.97
2022-08-31T20:44:20.357Z,18.93
2022-08-31T20:47:07.974Z,18.96
2022-08-31T20:49:39.090Z,18.96
2022-08-31T20:52:07.984Z,18.97
2022-08-31T20:54:37.442Z,18.96
2022-08-31T20:57:09.087Z,18.93
2022-08-31T20:59:37.023Z,18.89
2022-08-31T21:02:07.786Z,18.84
2022-08-31T21:04:37.874Z,18.78
2022-08-31T21:07:06.576Z,18.73
2022-08-31T21:09:34.645Z,18.69
2022-08-31T21:12:07.179Z,18.68
2022-08-31T21:14:36.580Z,18.68
2022-08-31T21:17:06.122Z,18.69
2022-08-31T21:19:38.391Z,18.68
2022-08-31T21:22:07.599Z,18.63
2022-08-31T21:24:36.130Z,18.61
2022-08-31T21:27:07.877Z,18.60
2022-08-31T21:29:36.930Z,18.60
2022-08-31T21:32:06.837Z,18.61
2022-08-31T21:34:35.040Z,18.63
2022-08-31T21:37:02.716Z,18.63
2022-08-31T21:39:32.405Z,18.60
2022-08-31T21:42:00.028Z,18.55
2022-08-31T21:44:28.959Z,18.50
2022-08-31T21:46:56.748Z,18.46
2022-08-31T21:49:24.412Z,18.44
2022-08-31T21:51:54.214Z,18.43
2022-08-31T21:54:26.090Z,18.43
2022-08-31T21:56:55.852Z,18.40
2022-08-31T21:59:25.421Z,18.36
2022-08-31T22:01:59.182Z,18.32
2022-08-31T22:04:28.045Z,18.28
2022-08-31T22:06:56.362Z,18.26
2022-08-31T22:09:24.826Z,18.22
2022-08-31T22:11:56.508Z,18.18
2022-08-31T22:14:28.203Z,18.14
2022-08-31T22:16:59.037Z,18.08
2022-08-31T22:19:28.478Z,18.07
2022-08-31T22:21:58.984Z,18.05
2022-08-31T22:24:29.185Z,18.02
2022-08-31T22:26:58.997Z,18.01
2022-08-31T22:29:29.359Z,17.98
2022-08-31T22:32:00.761Z,17.95
2022-08-31T22:34:28.666Z,17.94
2022-08-31T22:36:57.372Z,17.94
2022-08-31T22:39:27.968Z,17.90
2022-08-31T22:41:56.138Z,17.86
2022-08-31T22:44:27.428Z,17.82
2022-08-31T22:46:56.822Z,17.81
2022-08-31T22:49:27.022Z,17.81
2022-08-31T22:51:55.201Z,17.80
2022-08-31T22:54:23.162Z,17.76
2022-08-31T22:56:51.673Z,17.72
2022-08-31T22:59:26.118Z,17.74
2022-08-31T23:01:55.923Z,17.78
2022-08-31T23:04:27.538Z,17.82
2022-08-31T23:06:57.348Z,17.83
2022-08-31T23:09:27.591Z,17.84
2022-08-31T23:11:56.393Z,17.83
2022-08-31T23:14:24.530Z,17.81
2022-08-31T23:16:55.148Z,17.83
2022-08-31T23:19:26.804Z,17.81
2022-08-31T23:21:57.699Z,17.80
2022-08-31T23:24:27.926Z,17.78
2022-08-31T23:27:01.620Z,17.78
2022-08-31T23:29:32.107Z,17.78
2022-08-31T23:32:00.897Z,17.80
2022-08-31T23:34:29.806Z,17.85
2022-08-31T23:36:57.566Z,17.86
2022-08-31T23:39:25.438Z,17.84
2022-08-31T23:41:53.480Z,17.84
2022-08-31T23:44:22.201Z,17.83
2022-08-31T23:46:50.357Z,17.83
2022-08-31T23:49:20.565Z,17.81
2022-08-31T23:51:50.447Z,17.82
2022-08-31T23:54:18.438Z,17.85
2022-08-31T23:56:48.798Z,17.82
2022-08-31T23:59:19.747Z,17.77
